Time;durP1;ratioP1;P1;durP2;ratioP2;P2;SDS_P1;SDS_P2;PMS_P1;PMS_P2;Temp;Humidity;BMP_temperature;BMP_pressure;BME280_temperature;BME280_humidity;BME280_pressure;Samples;Min_cycle;Max_cycle;Signal;HPM_P1;HPM_P2
2022/01/30 00:01:01;;;;;;;6.30;3.00;;;;;;;5.58;85.69;97981.38;107566;1273;140496;-71
2022/01/30 00:03:30;;;;;;;3.60;2.50;;;;;;;5.61;85.32;97971.73;107670;1273;96578;-70
2022/01/30 00:05:58;;;;;;;4.10;2.60;;;;;;;5.66;85.13;97975.66;107556;1272;138270;-72
2022/01/30 00:08:28;;;;;;;7.40;2.80;;;;;;;5.68;85.13;97982.95;107714;1272;112074;-71
2022/01/30 00:11:05;;;;;;;3.60;2.70;;;;;;;5.69;85.07;97966.70;107664;1273;108813;-71
2022/01/30 00:13:34;;;;;;;3.60;2.50;;;;;;;5.66;84.91;97966.98;107496;1273;137365;-71
2022/01/30 00:16:06;;;;;;;4.90;2.60;;;;;;;5.66;85.24;97977.38;107682;1273;97258;-70
2022/01/30 00:18:49;;;;;;;2.70;2.00;;;;;;;5.65;85.52;97986.04;107567;1273;138667;-71
2022/01/30 00:21:31;;;;;;;3.60;2.60;;;;;;;5.64;85.87;97991.77;107650;1273;111433;-70
2022/01/30 00:24:04;;;;;;;5.30;2.10;;;;;;;5.58;85.67;97999.29;107546;1273;139323;-70
2022/01/30 00:26:35;;;;;;;3.10;1.50;;;;;;;5.50;84.22;97991.74;107632;1273;108983;-71
2022/01/30 00:29:04;;;;;;;4.80;1.70;;;;;;;5.42;83.03;98000.05;107646;1273;95986;-70
2022/01/30 00:31:34;;;;;;;7.90;1.60;;;;;;;5.39;82.54;98009.85;107594;1273;137124;-71
2022/01/30 00:34:23;;;;;;;6.80;1.30;;;;;;;5.35;82.52;98020.67;107684;1273;109880;-71
2022/01/30 00:36:51;;;;;;;4.50;1.20;;;;;;;5.30;81.90;98017.87;107467;1273;137438;-71
2022/01/30 00:39:20;;;;;;;6.10;1.40;;;;;;;5.23;81.63;98051.41;107644;1273;108971;-71
2022/01/30 00:41:48;;;;;;;6.40;1.80;;;;;;;5.17;81.21;98051.16;107561;1273;142356;-71
2022/01/30 00:44:17;;;;;;;4.70;1.40;;;;;;;5.15;81.10;98058.34;107665;1273;96239;-71
2022/01/30 00:46:47;;;;;;;6.10;1.10;;;;;;;5.13;81.07;98048.62;107711;1273;112326;-71
2022/01/30 00:49:15;;;;;;;5.70;1.50;;;;;;;5.12;80.74;98043.64;107561;1273;140272;-71
2022/01/30 00:51:45;;;;;;;6.00;1.30;;;;;;;5.11;80.25;98041.63;107566;1273;107872;-71
2022/01/30 00:54:14;;;;;;;8.70;1.60;;;;;;;5.09;79.67;98050.17;107563;1273;138394;-72
2022/01/30 00:56:42;;;;;;;4.10;1.10;;;;;;;5.03;79.14;98031.84;107672;1273;96649;-71
2022/01/30 00:59:11;;;;;;;5.70;1.50;;;;;;;4.99;79.37;98048.39;107444;1273;137604;-71
2022/01/30 01:01:40;;;;;;;3.20;0.90;;;;;;;4.93;79.07;98043.14;107677;1273;108358;-71
2022/01/30 01:04:09;;;;;;;3.90;1.10;;;;;;;4.87;78.49;98055.98;107555;1273;108997;-71
2022/01/30 01:06:39;;;;;;;4.00;1.30;;;;;;;4.83;78.61;98055.07;107555;1272;138590;-71
2022/01/30 01:09:11;;;;;;;8.90;1.50;;;;;;;4.80;77.22;98061.77;107597;1274;95876;-71
2022/01/30 01:25:43;;;;;;;8.30;1.60;;;;;;;4.40;75.90;98065.92;107093;1277;137760;-71
2022/01/30 01:28:11;;;;;;;7.90;1.70;;;;;;;4.36;76.15;98067.84;107396;1277;109200;-71
2022/01/30 01:30:40;;;;;;;7.10;1.80;;;;;;;4.32;76.15;98059.40;107289;1277;138225;-71
2022/01/30 01:33:09;;;;;;;6.80;1.90;;;;;;;4.31;76.29;98054.10;107338;1277;96102;-72
2022/01/30 01:35:38;;;;;;;6.70;1.60;;;;;;;4.30;76.35;98059.12;107286;1276;137926;-71
2022/01/30 01:38:11;;;;;;;10.40;1.90;;;;;;;4.28;76.77;98050.62;107373;1277;111334;-72
2022/01/30 01:40:40;;;;;;;14.10;2.10;;;;;;;4.25;76.41;98048.50;107294;1277;107973;-72
2022/01/30 01:43:09;;;;;;;12.40;2.20;;;;;;;4.20;75.67;98051.64;107260;1276;137675;-72
2022/01/30 01:45:40;;;;;;;9.50;2.10;;;;;;;4.18;75.57;98048.28;107244;1276;96219;-71
2022/01/30 01:48:11;;;;;;;8.80;2.20;;;;;;;4.18;75.04;98035.04;107253;1277;137756;-71
2022/01/30 01:50:44;;;;;;;6.80;1.70;;;;;;;4.17;75.37;98049.49;107495;1273;112717;-71
2022/01/30 01:53:15;;;;;;;7.50;2.10;;;;;;;4.20;74.77;98040.97;107591;1274;109420;-72
2022/01/30 01:55:44;;;;;;;9.50;1.70;;;;;;;4.22;74.88;98044.98;107552;1273;137447;-71
2022/01/30 01:58:27;;;;;;;5.50;1.90;;;;;;;4.21;75.07;98040.91;107514;1274;96455;-72
2022/01/30 02:01:24;;;;;;;9.00;2.10;;;;;;;4.18;74.82;98037.45;107524;1273;137322;-72
2022/01/30 02:03:54;;;;;;;5.00;1.80;;;;;;;4.17;74.48;98035.73;107687;1273;112757;-71
2022/01/30 02:06:24;;;;;;;11.10;2.20;;;;;;;4.16;74.83;98051.45;107492;1274;137413;-72
2022/01/30 02:08:57;;;;;;;12.10;2.70;;;;;;;4.13;75.00;98048.80;107508;1274;108931;-72
2022/01/30 02:11:33;;;;;;;7.60;2.10;;;;;;;4.10;74.89;98049.45;107293;1276;137755;-72
2022/01/30 02:14:29;;;;;;;10.50;2.70;;;;;;;4.07;74.60;98038.04;107361;1276;96229;-71
2022/01/30 02:25:33;;;;;;;7.50;2.20;;;;;;;4.05;75.05;98026.09;107275;1274;138536;-71
2022/01/30 02:28:08;;;;;;;11.30;2.40;;;;;;;4.04;75.11;98025.63;107478;1274;95875;-72
2022/01/30 02:30:42;;;;;;;9.90;2.40;;;;;;;4.01;75.58;98019.07;107295;1274;137461;-71
2022/01/30 02:33:11;;;;;;;8.90;2.40;;;;;;;3.98;75.50;98004.23;107507;1274;107757;-71
2022/01/30 02:35:41;;;;;;;11.60;2.30;;;;;;;3.95;75.94;98007.11;107305;1274;137714;-71
2022/01/30 02:38:09;;;;;;;8.40;2.10;;;;;;;3.93;75.76;98013.70;107609;1273;96567;-71
2022/01/30 02:40:41;;;;;;;16.20;2.50;;;;;;;3.91;75.94;98007.93;107466;1274;95901;-71
2022/01/30 02:43:10;;;;;;;9.50;2.40;;;;;;;3.91;75.81;98008.10;107460;1274;138227;-70
2022/01/30 02:45:47;;;;;;;7.90;2.30;;;;;;;3.92;75.37;98005.97;107584;1273;108010;-70
2022/01/30 02:48:19;;;;;;;15.10;3.70;;;;;;;3.94;75.11;97990.95;107473;1273;137411;-72
2022/01/30 02:50:55;;;;;;;13.90;3.00;;;;;;;3.95;75.20;97987.66;107579;1273;96914;-71
2022/01/30 02:53:30;;;;;;;18.00;3.00;;;;;;;3.95;75.12;97986.98;107518;1274;137560;-71
2022/01/30 02:55:59;;;;;;;14.40;3.20;;;;;;;3.95;74.87;97984.92;107560;1274;112770;-72
2022/01/30 02:58:27;;;;;;;8.90;2.40;;;;;;;3.93;75.03;97983.95;107611;1274;108926;-72
2022/01/30 03:04:29;;;;;;;11.00;2.30;;;;;;;3.87;74.27;97972.00;106416;1284;96315;-71
2022/01/30 03:06:58;;;;;;;13.40;2.40;;;;;;;3.86;74.46;97984.94;106426;1284;138333;-71
2022/01/30 03:09:34;;;;;;;10.00;2.40;;;;;;;3.84;74.79;98004.96;106492;1284;111471;-71
2022/01/30 03:12:05;;;;;;;12.40;2.80;;;;;;;3.83;74.84;98012.75;106304;1284;138233;-72
2022/01/30 03:14:33;;;;;;;14.80;3.00;;;;;;;3.80;75.36;98012.19;106318;1285;109149;-71
2022/01/30 03:17:02;;;;;;;10.90;2.70;;;;;;;3.74;75.84;98023.23;106594;1284;96381;-71
2022/01/30 03:19:31;;;;;;;11.90;2.70;;;;;;;3.65;76.51;98027.23;106504;1284;139183;-71
2022/01/30 03:21:59;;;;;;;7.20;1.60;;;;;;;3.47;76.75;97995.27;106521;1284;112835;-70
2022/01/30 03:24:34;;;;;;;5.50;1.30;;;;;;;3.27;76.20;97990.41;106546;1284;138889;-71
2022/01/30 03:27:08;;;;;;;8.70;1.80;;;;;;;3.13;76.16;97982.17;106491;1284;107836;-71
2022/01/30 03:29:50;;;;;;;3.40;1.00;;;;;;;3.04;76.57;97981.30;106446;1284;138053;-71
2022/01/30 03:32:28;;;;;;;4.90;1.10;;;;;;;2.98;77.19;97983.92;106479;1283;96101;-72
2022/01/30 03:34:57;;;;;;;3.40;1.10;;;;;;;2.93;77.40;97966.11;106478;1284;112286;-71
2022/01/30 03:37:25;;;;;;;6.10;1.30;;;;;;;2.87;77.12;97960.34;106436;1284;137648;-71
2022/01/30 03:39:54;;;;;;;6.30;1.60;;;;;;;2.81;77.06;97960.20;106580;1283;108736;-71
2022/01/30 03:42:23;;;;;;;7.50;1.70;;;;;;;2.76;76.81;97963.35;106476;1282;139547;-71
2022/01/30 03:44:51;;;;;;;3.10;1.10;;;;;;;2.73;77.14;97957.09;106537;1284;96062;-70
2022/01/30 03:47:20;;;;;;;4.40;1.10;;;;;;;2.74;77.47;97969.39;106658;1283;111671;-72
2022/01/30 03:49:48;;;;;;;4.60;1.10;;;;;;;2.74;77.93;97952.23;106401;1282;138097;-71
2022/01/30 03:52:17;;;;;;;7.40;1.10;;;;;;;2.73;77.84;97954.33;106555;1284;109023;-71
2022/01/30 03:54:46;;;;;;;6.60;1.40;;;;;;;2.74;78.02;97945.73;106388;1284;138765;-71
2022/01/30 03:57:15;;;;;;;6.50;1.30;;;;;;;2.74;78.00;97939.54;106751;1282;96079;-71
2022/01/30 03:59:44;;;;;;;6.40;1.60;;;;;;;2.75;77.78;97936.79;106501;1283;138979;-72
2022/01/30 04:02:13;;;;;;;11.70;2.00;;;;;;;2.77;77.86;97930.55;106467;1284;109074;-72
2022/01/30 04:04:41;;;;;;;9.80;2.20;;;;;;;2.78;77.84;97931.17;106642;1284;109104;-72
2022/01/30 04:07:12;;;;;;;9.10;1.70;;;;;;;2.79;77.92;97917.06;106301;1284;137834;-72
2022/01/30 04:09:47;;;;;;;9.00;2.20;;;;;;;2.80;78.15;97914.62;106603;1284;99791;-72
2022/01/30 04:12:31;;;;;;;6.40;1.70;;;;;;;2.81;77.99;97914.05;106355;1284;138580;-71
2022/01/30 04:15:10;;;;;;;10.50;2.00;;;;;;;2.84;78.43;97918.07;106415;1284;107860;-72
2022/01/30 04:18:02;;;;;;;8.20;2.00;;;;;;;2.90;78.37;97917.66;106368;1283;139356;-72
2022/01/30 04:20:46;;;;;;;7.80;2.20;;;;;;;2.95;78.18;97899.27;106635;1283;96033;-72
2022/01/30 04:23:14;;;;;;;6.60;1.90;;;;;;;3.01;78.02;97892.13;106610;1283;95955;-72
2022/01/30 04:25:55;;;;;;;14.40;2.60;;;;;;;3.10;77.44;97881.85;106498;1283;136930;-72
2022/01/30 04:28:43;;;;;;;16.00;2.50;;;;;;;3.19;77.20;97888.70;106633;1283;109202;-72
2022/01/30 04:31:21;;;;;;;18.00;2.50;;;;;;;3.23;76.74;97891.27;106498;1283;138567;-72
2022/01/30 04:34:06;;;;;;;12.30;2.60;;;;;;;3.31;76.47;97881.70;106398;1284;96321;-72
2022/01/30 04:36:55;;;;;;;10.70;2.20;;;;;;;3.36;76.24;97877.20;106530;1284;137637;-72
2022/01/30 04:40:35;;;;;;;10.50;2.70;;;;;;;3.39;75.89;97858.17;106238;1284;111705;-72
2022/01/30 04:52:46;;;;;;;9.50;2.30;;;;;;;3.55;74.55;97838.23;106670;1283;96227;-71
2022/01/30 04:58:31;;;;;;;12.80;2.60;;;;;;;3.60;74.12;97825.16;106284;1287;109111;-73
2022/01/30 05:01:39;;;;;;;12.50;2.60;;;;;;;3.61;73.53;97797.27;105677;1287;137869;-71
2022/01/30 05:04:46;;;;;;;9.90;2.30;;;;;;;3.62;73.55;97827.15;105858;1287;96381;-72
2022/01/30 05:07:39;;;;;;;7.10;2.00;;;;;;;3.63;73.29;97792.54;105651;1287;139106;-71
2022/01/30 05:10:14;;;;;;;8.40;1.90;;;;;;;3.66;73.41;97792.41;106189;1287;112659;-72
2022/01/30 05:13:06;;;;;;;7.80;2.10;;;;;;;3.70;72.39;97777.13;105705;1287;139618;-71
2022/01/30 05:15:54;;;;;;;11.80;2.40;;;;;;;3.72;72.32;97772.58;106121;1287;108033;-72
2022/01/30 05:18:53;;;;;;;10.20;2.00;;;;;;;3.74;72.47;97777.46;105863;1289;139016;-71
2022/01/30 05:21:46;;;;;;;11.20;2.40;;;;;;;3.74;72.68;97781.61;105921;1288;96467;-71
2022/01/30 05:24:36;;;;;;;11.50;2.00;;;;;;;3.72;71.91;97750.05;106022;1287;137401;-71
2022/01/30 05:27:16;;;;;;;13.70;2.30;;;;;;;3.68;72.07;97763.98;106016;1287;106057;-71
2022/01/30 05:30:16;;;;;;;7.20;1.60;;;;;;;3.57;72.97;97748.28;105867;1290;137797;-71
2022/01/30 05:33:07;;;;;;;6.00;1.50;;;;;;;3.43;73.63;97759.95;106061;1288;96287;-71
2022/01/30 05:36:05;;;;;;;8.10;1.70;;;;;;;3.31;73.97;97759.07;105937;1283;138309;-71
2022/01/30 05:38:38;;;;;;;6.10;1.40;;;;;;;3.25;73.86;97759.86;106613;1283;110583;-71
2022/01/30 05:41:26;;;;;;;9.80;2.20;;;;;;;3.22;74.11;97762.89;106690;1283;107899;-71
2022/01/30 05:44:19;;;;;;;9.80;2.10;;;;;;;3.19;74.02;97785.84;106552;1283;137641;-71
2022/01/30 05:47:21;;;;;;;12.40;2.40;;;;;;;3.17;74.10;97769.64;106582;1284;96242;-70
2022/01/30 05:50:19;;;;;;;11.30;2.60;;;;;;;3.17;73.60;97766.20;106367;1284;138365;-71
2022/01/30 05:53:08;;;;;;;9.80;2.10;;;;;;;3.15;73.65;97786.17;106619;1284;113940;-70
2022/01/30 05:55:42;;;;;;;11.40;1.90;;;;;;;3.14;73.62;97787.61;106533;1283;139688;-71
2022/01/30 05:58:11;;;;;;;9.00;2.00;;;;;;;3.15;73.60;97792.35;106527;1284;107954;-70
2022/01/30 06:00:58;;;;;;;10.70;1.90;;;;;;;3.19;73.22;97770.39;106339;1284;137898;-71
2022/01/30 06:03:29;;;;;;;6.70;2.10;;;;;;;3.19;73.26;97789.25;106659;1283;95874;-71
2022/01/30 06:05:58;;;;;;;14.40;2.30;;;;;;;3.18;73.17;97793.10;106459;1284;137548;-70
2022/01/30 06:08:41;;;;;;;13.00;2.80;;;;;;;3.19;73.11;97796.31;106628;1283;107589;-71
2022/01/30 06:11:10;;;;;;;11.20;2.20;;;;;;;3.19;72.99;97788.58;106582;1284;107738;-71
2022/01/30 06:13:39;;;;;;;10.60;2.20;;;;;;;3.17;73.03;97806.50;106332;1284;137673;-71
2022/01/30 06:16:08;;;;;;;10.80;2.50;;;;;;;3.16;72.78;97795.41;106457;1284;96195;-71
2022/01/30 06:18:37;;;;;;;10.30;2.10;;;;;;;3.16;72.80;97783.73;106334;1284;138496;-71
2022/01/30 06:21:11;;;;;;;9.60;2.40;;;;;;;3.17;72.83;97790.92;106623;1284;108898;-72
2022/01/30 06:23:49;;;;;;;10.40;1.70;;;;;;;3.18;72.79;97797.89;106633;1284;109518;-72
2022/01/30 06:26:36;;;;;;;6.70;2.10;;;;;;;3.21;72.59;97781.27;106534;1284;138018;-71
2022/01/30 06:29:23;;;;;;;11.40;2.60;;;;;;;3.24;72.83;97805.41;106644;1284;96389;-71
2022/01/30 06:32:11;;;;;;;12.40;2.60;;;;;;;3.23;72.92;97807.14;106547;1283;138492;-71
2022/01/30 06:34:57;;;;;;;;;;;;;;;3.22;72.92;97803.39;106679;1283;109075;-72
2022/01/30 06:37:44;;;;;;;12.20;2.50;;;;;;;3.18;72.96;97812.67;106523;1283;124696;-71
2022/01/30 06:40:35;;;;;;;9.80;2.20;;;;;;;3.13;73.05;97814.95;106214;1284;96095;-71
2022/01/30 06:43:23;;;;;;;8.20;2.10;;;;;;;3.12;73.08;97821.49;106552;1284;139380;-72
2022/01/30 06:46:11;;;;;;;7.70;2.10;;;;;;;3.14;72.98;97814.91;106657;1283;111299;-71
2022/01/30 06:48:58;;;;;;;6.70;1.90;;;;;;;3.14;72.95;97811.46;106529;1283;139140;-72
2022/01/30 06:51:46;;;;;;;8.30;2.20;;;;;;;3.14;73.15;97818.52;106636;1284;109181;-71
2022/01/30 06:54:49;;;;;;;10.10;2.70;;;;;;;3.13;73.25;97816.32;105953;1289;137596;-71
2022/01/30 06:57:43;;;;;;;11.20;2.40;;;;;;;3.14;73.15;97815.25;106586;1283;96199;-72
2022/01/30 07:00:30;;;;;;;10.00;2.50;;;;;;;3.14;73.19;97800.83;106516;1284;137878;-73
2022/01/30 07:03:25;;;;;;;12.10;2.70;;;;;;;3.14;72.96;97809.06;106392;1284;109108;-72
2022/01/30 07:06:14;;;;;;;9.80;2.40;;;;;;;3.12;73.19;97802.10;106080;1284;138243;-72
2022/01/30 07:08:43;;;;;;;8.10;2.10;;;;;;;3.13;73.03;97800.71;106342;1284;96226;-72
2022/01/30 07:11:15;;;;;;;7.80;1.80;;;;;;;3.16;73.12;97783.55;106525;1284;95860;-71
2022/01/30 07:13:43;;;;;;;6.70;1.90;;;;;;;3.20;73.16;97797.48;106334;1282;138468;-72
2022/01/30 07:16:15;;;;;;;5.00;1.90;;;;;;;3.23;73.31;97781.38;106617;1284;108907;-72
2022/01/30 07:18:45;;;;;;;9.90;2.30;;;;;;;3.24;73.32;97766.95;106512;1283;137740;-71
2022/01/30 07:21:15;;;;;;;9.40;2.30;;;;;;;3.23;73.42;97759.07;106565;1284;96179;-72
2022/01/30 07:23:43;;;;;;;12.20;2.10;;;;;;;3.20;73.41;97752.84;106642;1284;95782;-71
2022/01/30 07:26:12;;;;;;;8.90;2.60;;;;;;;3.16;73.50;97752.65;106556;1283;137891;-72
2022/01/30 07:28:40;;;;;;;6.50;1.60;;;;;;;3.15;73.70;97755.10;106608;1283;108998;-72
2022/01/30 07:31:09;;;;;;;5.60;1.60;;;;;;;3.16;73.64;97749.23;106478;1283;138091;-72
2022/01/30 07:33:40;;;;;;;6.70;2.30;;;;;;;3.16;74.06;97750.95;106657;1283;95888;-72
2022/01/30 07:36:09;;;;;;;7.40;1.90;;;;;;;3.14;74.56;97754.27;106658;1283;96286;-72
2022/01/30 07:38:38;;;;;;;4.80;1.80;;;;;;;3.13;74.91;97756.25;106553;1282;138144;-72
2022/01/30 07:41:07;;;;;;;8.60;2.20;;;;;;;3.08;75.33;97748.90;106501;1283;109027;-73
2022/01/30 07:43:35;;;;;;;9.50;2.10;;;;;;;2.96;75.78;97769.80;106510;1283;139141;-71
2022/01/30 07:46:05;;;;;;;6.50;1.70;;;;;;;2.81;76.29;97769.38;106395;1283;96036;-72
2022/01/30 07:48:34;;;;;;;4.80;1.60;;;;;;;2.64;76.28;97760.98;106525;1283;138734;-71
2022/01/30 07:51:02;;;;;;;4.40;1.80;;;;;;;2.42;76.57;97770.08;106651;1284;113049;-71
2022/01/30 07:53:31;;;;;;;4.80;1.70;;;;;;;2.23;76.80;97771.69;106635;1283;108972;-70
2022/01/30 07:55:59;;;;;;;3.40;1.40;;;;;;;2.07;76.98;97767.30;106478;1283;138686;-71
2022/01/30 07:58:28;;;;;;;3.40;1.30;;;;;;;1.98;77.82;97771.42;106615;1283;96148;-70
2022/01/30 08:00:56;;;;;;;4.70;1.60;;;;;;;1.86;78.38;97772.38;106541;1283;138676;-71
2022/01/30 08:03:25;;;;;;;5.70;1.60;;;;;;;1.77;78.83;97765.65;106616;1283;111652;-70
2022/01/30 08:05:54;;;;;;;3.80;1.40;;;;;;;1.70;79.21;97770.37;106655;1282;108144;-71
2022/01/30 08:08:23;;;;;;;6.00;1.70;;;;;;;1.65;79.26;97785.67;106544;1284;138310;-72
2022/01/30 08:10:51;;;;;;;5.10;1.70;;;;;;;1.62;79.65;97792.79;106507;1284;95986;-71
2022/01/30 08:13:20;;;;;;;3.80;1.40;;;;;;;1.60;79.97;97786.34;106515;1283;137285;-70
2022/01/30 08:15:49;;;;;;;3.80;1.60;;;;;;;1.58;80.22;97776.96;106640;1283;112479;-71
2022/01/30 08:18:17;;;;;;;4.00;1.60;;;;;;;1.56;80.12;97792.11;106508;1283;138600;-70
2022/01/30 08:20:46;;;;;;;4.40;1.50;;;;;;;1.57;80.47;97803.23;106642;1283;107941;-71
2022/01/30 08:23:17;;;;;;;3.90;1.70;;;;;;;1.59;80.36;97788.57;106617;1283;96206;-71
2022/01/30 08:25:46;;;;;;;3.10;1.10;;;;;;;1.60;80.69;97788.20;106513;1284;137948;-71
2022/01/30 08:28:15;;;;;;;3.00;1.20;;;;;;;1.66;80.56;97792.66;106651;1283;112744;-71
2022/01/30 08:30:45;;;;;;;2.70;1.40;;;;;;;1.69;80.59;97784.30;106525;1283;137531;-71
2022/01/30 08:33:16;;;;;;;3.00;1.20;;;;;;;1.73;80.44;97788.08;106601;1283;109042;-71
2022/01/30 08:35:45;;;;;;;3.20;1.40;;;;;;;1.77;80.44;97786.20;106606;1283;96202;-71
2022/01/30 08:38:15;;;;;;;3.10;1.30;;;;;;;1.83;80.41;97801.47;106527;1284;138033;-71
2022/01/30 08:40:44;;;;;;;2.60;1.20;;;;;;;1.87;80.13;97803.52;106526;1284;112724;-72
2022/01/30 08:43:13;;;;;;;2.40;1.20;;;;;;;1.90;79.77;97808.07;106521;1284;138207;-72
2022/01/30 08:45:42;;;;;;;2.20;1.20;;;;;;;1.90;79.78;97791.95;106628;1283;107831;-72
2022/01/30 08:48:11;;;;;;;2.30;1.10;;;;;;;1.89;79.73;97781.88;106600;1284;96106;-73
2022/01/30 08:50:40;;;;;;;2.40;0.80;;;;;;;1.89;79.54;97784.97;106543;1283;137942;-72
2022/01/30 08:53:15;;;;;;;3.60;1.70;;;;;;;1.85;78.99;97785.61;106600;1284;112679;-72
2022/01/30 08:55:44;;;;;;;4.50;1.30;;;;;;;1.77;79.75;97786.21;106530;1283;137377;-71
2022/01/30 08:58:13;;;;;;;0.90;0.70;;;;;;;1.68;80.07;97799.57;106639;1283;109700;-71
2022/01/30 09:00:43;;;;;;;2.50;0.90;;;;;;;1.84;80.59;97805.35;106510;1283;138180;-72
2022/01/30 09:03:11;;;;;;;0.90;0.70;;;;;;;2.26;80.49;97810.48;106653;1283;95878;-73
2022/01/30 09:05:40;;;;;;;2.10;1.30;;;;;;;2.65;79.88;97804.86;106646;1284;113105;-72
2022/01/30 09:08:09;;;;;;;3.10;1.40;;;;;;;2.79;79.11;97812.88;106518;1283;138080;-72
2022/01/30 09:10:39;;;;;;;2.80;1.70;;;;;;;2.88;78.75;97810.61;106645;1284;107785;-72
2022/01/30 09:13:07;;;;;;;3.00;1.00;;;;;;;2.92;78.28;97808.76;106528;1284;137354;-73
2022/01/30 09:15:40;;;;;;;2.70;1.50;;;;;;;2.90;78.03;97800.95;106655;1282;96494;-72
2022/01/30 09:18:10;;;;;;;3.00;1.20;;;;;;;2.85;77.86;97803.88;106607;1284;112578;-72
2022/01/30 09:20:41;;;;;;;2.30;1.40;;;;;;;2.81;77.89;97797.02;106527;1283;137322;-72
2022/01/30 09:23:11;;;;;;;3.10;1.50;;;;;;;2.83;78.13;97794.89;106612;1283;109042;-71
2022/01/30 09:25:45;;;;;;;3.20;1.50;;;;;;;2.87;78.29;97797.64;106511;1283;138412;-71
2022/01/30 09:28:14;;;;;;;4.70;1.80;;;;;;;2.94;78.43;97799.60;106598;1284;96326;-72
2022/01/30 09:30:43;;;;;;;3.60;2.20;;;;;;;3.05;78.29;97796.73;106551;1284;139396;-72
2022/01/30 09:33:12;;;;;;;3.50;1.70;;;;;;;3.15;78.05;97802.48;106607;1284;108980;-71
2022/01/30 09:35:40;;;;;;;6.50;1.90;;;;;;;3.12;77.88;97799.36;106593;1283;109047;-72
2022/01/30 09:38:09;;;;;;;8.40;2.30;;;;;;;3.08;78.10;97806.77;106531;1284;138815;-72
2022/01/30 09:40:37;;;;;;;5.70;2.30;;;;;;;3.03;78.08;97811.57;106600;1283;96003;-72
2022/01/30 09:43:08;;;;;;;5.90;2.40;;;;;;;2.98;78.13;97815.89;106538;1284;136149;-72
2022/01/30 09:45:37;;;;;;;3.90;1.80;;;;;;;2.93;78.51;97811.46;106654;1284;108628;-72
2022/01/30 09:48:07;;;;;;;5.50;2.00;;;;;;;2.87;78.38;97804.66;106620;1283;108977;-72
2022/01/30 09:50:36;;;;;;;4.90;1.80;;;;;;;2.84;78.65;97812.33;106514;1284;139854;-72
2022/01/30 09:53:05;;;;;;;4.80;2.00;;;;;;;2.82;78.79;97807.27;106643;1284;96065;-72
2022/01/30 09:55:34;;;;;;;6.50;2.10;;;;;;;2.82;78.80;97810.86;106510;1283;138079;-73
2022/01/30 09:58:04;;;;;;;4.00;1.80;;;;;;;2.80;78.91;97800.46;106663;1283;108992;-72
2022/01/30 10:00:32;;;;;;;6.50;2.30;;;;;;;2.80;78.99;97797.76;106529;1284;137933;-72
2022/01/30 10:03:01;;;;;;;16.80;2.50;;;;;;;2.81;78.83;97794.80;106621;1284;96368;-72
2022/01/30 10:05:34;;;;;;;9.60;2.70;;;;;;;2.81;79.09;97798.05;106593;1284;96154;-73
2022/01/30 10:08:04;;;;;;;10.80;3.40;;;;;;;2.80;78.97;97798.25;106524;1284;137962;-72
2022/01/30 10:10:36;;;;;;;14.60;3.40;;;;;;;2.79;79.04;97796.92;106650;1283;108192;-72
2022/01/30 10:13:09;;;;;;;10.30;3.50;;;;;;;2.80;79.43;97796.71;106512;1283;138836;-72
2022/01/30 10:15:52;;;;;;;9.00;3.50;;;;;;;2.81;79.49;97793.05;106570;1284;96164;-71
2022/01/30 10:18:22;;;;;;;9.50;3.30;;;;;;;2.83;79.59;97793.48;106562;1283;138916;-71
2022/01/30 10:20:51;;;;;;;11.40;3.10;;;;;;;2.85;79.44;97788.10;106636;1284;112658;-73
2022/01/30 10:23:19;;;;;;;10.00;3.10;;;;;;;2.87;79.48;97780.30;106581;1284;109121;-72
2022/01/30 10:25:53;;;;;;;10.10;3.10;;;;;;;2.90;79.58;97777.95;106506;1284;138366;-73
2022/01/30 10:28:27;;;;;;;13.90;3.10;;;;;;;2.92;79.47;97786.27;106640;1283;96168;-72
2022/01/30 10:30:58;;;;;;;14.70;3.20;;;;;;;2.95;79.68;97775.88;106439;1284;137882;-71
2022/01/30 10:33:41;;;;;;;11.90;3.40;;;;;;;2.96;79.68;97772.35;106654;1283;112462;-71
2022/01/30 10:36:11;;;;;;;8.60;2.60;;;;;;;2.98;79.96;97777.96;106642;1283;107663;-72
2022/01/30 10:38:45;;;;;;;8.10;2.90;;;;;;;2.99;79.98;97781.18;106496;1283;138181;-71
2022/01/30 10:41:18;;;;;;;10.80;2.90;;;;;;;2.98;80.00;97784.29;106627;1284;95885;-72
2022/01/30 10:43:55;;;;;;;8.70;3.00;;;;;;;2.97;80.30;97788.13;106531;1283;138633;-72
2022/01/30 10:46:26;;;;;;;8.40;2.70;;;;;;;2.94;80.10;97781.36;106603;1283;110186;-72
2022/01/30 10:48:57;;;;;;;8.00;2.40;;;;;;;2.90;80.33;97787.56;106552;1284;140176;-72
2022/01/30 10:51:26;;;;;;;7.90;3.20;;;;;;;2.83;80.40;97782.17;106602;1284;108754;-72
2022/01/30 10:53:57;;;;;;;8.50;2.50;;;;;;;2.78;80.52;97789.74;106604;1283;95879;-72
2022/01/30 10:56:27;;;;;;;10.50;3.30;;;;;;;2.76;80.63;97782.98;106530;1283;138504;-71
2022/01/30 10:59:13;;;;;;;8.80;3.10;;;;;;;2.75;80.84;97768.81;106521;1284;112696;-72
2022/01/30 11:01:44;;;;;;;7.70;3.00;;;;;;;2.74;80.92;97770.54;106519;1283;138526;-72
2022/01/30 11:04:24;;;;;;;10.80;3.20;;;;;;;2.75;80.94;97772.38;106615;1283;108975;-72
2022/01/30 11:06:54;;;;;;;7.60;3.10;;;;;;;2.77;81.09;97768.69;106512;1283;138596;-73
2022/01/30 11:09:26;;;;;;;8.40;3.50;;;;;;;2.80;81.46;97753.83;106639;1284;96474;-72
2022/01/30 11:11:59;;;;;;;8.80;3.40;;;;;;;2.82;81.20;97749.94;106590;1284;112840;-73
2022/01/30 11:14:37;;;;;;;8.50;3.00;;;;;;;2.84;81.68;97752.27;106505;1283;138122;-71
2022/01/30 11:17:08;;;;;;;8.30;3.30;;;;;;;2.86;81.42;97753.55;106605;1283;109263;-71
2022/01/30 11:19:39;;;;;;;9.50;3.20;;;;;;;2.86;81.72;97758.89;106520;1283;138304;-72
2022/01/30 11:22:09;;;;;;;11.30;3.20;;;;;;;2.85;81.75;97769.55;106630;1284;96262;-72
2022/01/30 11:24:45;;;;;;;7.60;3.20;;;;;;;2.86;81.83;97760.08;106547;1284;138263;-71
2022/01/30 11:27:14;;;;;;;7.80;2.90;;;;;;;2.87;82.22;97788.02;106417;1284;107645;-72
2022/01/30 11:29:44;;;;;;;4.90;2.10;;;;;;;2.91;81.90;97794.73;106515;1284;108998;-71
2022/01/30 11:32:13;;;;;;;6.50;2.60;;;;;;;2.95;81.80;97787.35;106539;1283;139383;-72
2022/01/30 11:34:43;;;;;;;8.00;2.80;;;;;;;3.00;81.47;97809.96;106646;1283;96210;-71
2022/01/30 11:37:14;;;;;;;8.10;3.20;;;;;;;3.03;81.37;97800.55;106541;1284;138305;-71
2022/01/30 11:39:45;;;;;;;8.10;2.50;;;;;;;3.08;81.09;97813.64;106630;1283;108682;-72
2022/01/30 11:42:18;;;;;;;7.70;2.40;;;;;;;3.09;80.71;97815.30;106633;1284;109069;-72
2022/01/30 11:44:48;;;;;;;7.90;2.50;;;;;;;3.12;80.70;97824.11;106520;1284;139029;-71
2022/01/30 11:47:23;;;;;;;8.30;3.00;;;;;;;3.13;80.49;97830.56;106620;1284;96143;-71
2022/01/30 11:50:02;;;;;;;7.10;3.10;;;;;;;3.16;80.43;97829.42;106519;1284;138223;-72
2022/01/30 11:53:01;;;;;;;9.80;2.90;;;;;;;3.19;80.38;97833.94;106627;1284;109073;-72
2022/01/30 11:55:57;;;;;;;7.80;3.00;;;;;;;3.23;80.40;97830.14;106417;1284;138604;-73
2022/01/30 11:58:49;;;;;;;6.50;2.50;;;;;;;3.29;80.49;97842.08;106574;1283;97092;-73
2022/01/30 12:01:37;;;;;;;7.00;2.90;;;;;;;3.34;80.57;97842.55;106465;1284;137866;-71
2022/01/30 12:04:55;;;;;;;6.50;2.20;;;;;;;3.41;80.50;97842.98;106561;1283;112519;-73
2022/01/30 12:07:37;;;;;;;7.00;2.70;;;;;;;3.43;80.21;97849.61;106306;1284;138253;-70
2022/01/30 12:10:33;;;;;;;4.60;2.30;;;;;;;3.41;80.08;97858.11;106583;1284;109412;-71
2022/01/30 12:13:06;;;;;;;6.40;2.90;;;;;;;3.38;79.97;97860.59;106349;1284;139238;-73
2022/01/30 12:15:37;;;;;;;5.20;2.20;;;;;;;3.36;79.95;97870.34;106637;1284;97007;-72
2022/01/30 12:18:06;;;;;;;6.80;2.20;;;;;;;3.30;79.94;97867.66;106664;1284;112539;-72
2022/01/30 12:21:00;;;;;;;5.00;2.60;;;;;;;3.24;80.21;97880.43;106505;1284;138321;-70
2022/01/30 12:23:30;;;;;;;5.50;1.90;;;;;;;3.22;80.49;97882.74;106603;1284;109221;-71
2022/01/30 12:26:04;;;;;;;3.70;1.80;;;;;;;3.21;80.42;97896.35;106520;1283;139233;-71
2022/01/30 12:28:41;;;;;;;4.60;2.50;;;;;;;3.16;80.51;97914.40;106596;1284;96146;-71
2022/01/30 12:31:36;;;;;;;4.90;2.30;;;;;;;3.11;80.66;97916.70;106521;1283;138819;-74
2022/01/30 12:34:08;;;;;;;4.00;1.80;;;;;;;3.01;80.79;97921.51;106671;1283;107949;-72
2022/01/30 12:36:38;;;;;;;3.40;2.00;;;;;;;2.93;81.10;97934.69;106480;1284;138752;-71
2022/01/30 12:39:12;;;;;;;3.60;1.90;;;;;;;2.88;81.00;97947.77;106615;1284;96579;-72